sensor_id;sensor_type;location;lat;lon;timestamp;pressure;altitude;pressure_sealevel;temperature;humidity
62864;BME280;48954;59.950;11.014;2023-02-12T07:26:20;100727.88;;;0.02;81.84
62864;BME280;48954;59.950;11.014;2023-02-12T08:41:44;100687.17;;;0.37;81.53
62864;BME280;48954;59.950;11.014;2023-02-12T08:44:29;100703.04;;;0.49;81.46
62864;BME280;48954;59.950;11.014;2023-02-12T08:47:09;100695.26;;;0.59;81.20
62864;BME280;48954;59.950;11.014;2023-02-12T08:49:59;100686.91;;;0.67;81.02
62864;BME280;48954;59.950;11.014;2023-02-12T08:52:40;100684.42;;;0.70;80.63
62864;BME280;48954;59.950;11.014;2023-02-12T08:55:48;100668.94;;;0.71;80.53
62864;BME280;48954;59.950;11.014;2023-02-12T08:58:36;100676.36;;;0.73;80.32
62864;BME280;48954;59.950;11.014;2023-02-12T09:01:38;100675.93;;;0.76;80.36
62864;BME280;48954;59.950;11.014;2023-02-12T09:04:16;100677.49;;;0.77;80.36
62864;BME280;48954;59.950;11.014;2023-02-12T09:06:51;100681.77;;;0.78;80.13
62864;BME280;48954;59.950;11.014;2023-02-12T09:09:33;100680.67;;;0.78;80.07
62864;BME280;48954;59.950;11.014;2023-02-12T09:12:13;100684.46;;;0.79;80.24
62864;BME280;48954;59.950;11.014;2023-02-12T09:14:54;100689.89;;;0.84;80.18
62864;BME280;48954;59.950;11.014;2023-02-12T09:17:36;100687.82;;;0.92;80.19
62864;BME280;48954;59.950;11.014;2023-02-12T09:20:18;100684.52;;;0.96;80.18
62864;BME280;48954;59.950;11.014;2023-02-12T09:23:00;100676.98;;;1.01;80.09
62864;BME280;48954;59.950;11.014;2023-02-12T09:25:46;100677.89;;;1.09;80.13
62864;BME280;48954;59.950;11.014;2023-02-12T09:28:29;100672.64;;;1.21;80.03
62864;BME280;48954;59.950;11.014;2023-02-12T09:31:31;100675.23;;;1.31;80.07
62864;BME280;48954;59.950;11.014;2023-02-12T09:37:04;100679.29;;;1.48;79.54
62864;BME280;48954;59.950;11.014;2023-02-12T09:46:29;100697.02;;;1.53;78.94
62864;BME280;48954;59.950;11.014;2023-02-12T09:52:56;100696.91;;;1.48;78.73
62864;BME280;48954;59.950;11.014;2023-02-12T09:56:10;100698.05;;;1.44;78.49
62864;BME280;48954;59.950;11.014;2023-02-12T09:59:30;100696.73;;;1.40;78.52
62864;BME280;48954;59.950;11.014;2023-02-12T10:02:47;100692.29;;;1.37;78.35
62864;BME280;48954;59.950;11.014;2023-02-12T10:34:25;100707.72;;;1.75;78.37
62864;BME280;48954;59.950;11.014;2023-02-12T10:37:25;100709.77;;;1.88;78.57
62864;BME280;48954;59.950;11.014;2023-02-12T10:40:26;100705.77;;;2.06;78.29
62864;BME280;48954;59.950;11.014;2023-02-12T10:43:47;100700.19;;;2.26;78.16
62864;BME280;48954;59.950;11.014;2023-02-12T10:47:01;100701.56;;;2.47;77.89
62864;BME280;48954;59.950;11.014;2023-02-12T10:50:12;100697.95;;;2.71;77.65
62864;BME280;48954;59.950;11.014;2023-02-12T10:53:29;100692.28;;;2.92;77.36
62864;BME280;48954;59.950;11.014;2023-02-12T10:56:52;100693.13;;;3.13;76.63
62864;BME280;48954;59.950;11.014;2023-02-12T11:20:24;100702.59;;;3.80;75.15
62864;BME280;48954;59.950;11.014;2023-02-12T11:26:39;100702.89;;;3.96;75.04
62864;BME280;48954;59.950;11.014;2023-02-12T20:57:21;100756.67;;;3.62;69.87
62864;BME280;48954;59.950;11.014;2023-02-12T21:00:10;100749.29;;;3.71;69.92
62864;BME280;48954;59.950;11.014;2023-02-12T21:02:52;100749.98;;;3.83;69.46
62864;BME280;48954;59.950;11.014;2023-02-12T21:05:28;100747.58;;;3.92;69.39
62864;BME280;48954;59.950;11.014;2023-02-12T21:08:11;100753.29;;;3.97;69.20
62864;BME280;48954;59.950;11.014;2023-02-12T21:11:03;100758.85;;;4.04;69.10
62864;BME280;48954;59.950;11.014;2023-02-12T21:13:52;100753.48;;;4.11;69.22
62864;BME280;48954;59.950;11.014;2023-02-12T21:16:34;100746.24;;;4.12;68.84
62864;BME280;48954;59.950;11.014;2023-02-12T21:19:16;100746.90;;;4.12;68.84
62864;BME280;48954;59.950;11.014;2023-02-12T21:21:56;100751.27;;;4.11;68.81
62864;BME280;48954;59.950;11.014;2023-02-12T21:25:07;100751.79;;;4.08;69.02
62864;BME280;48954;59.950;11.014;2023-02-12T21:28:07;100753.01;;;4.05;68.75
62864;BME280;48954;59.950;11.014;2023-02-12T21:30:49;100753.08;;;4.01;68.79
62864;BME280;48954;59.950;11.014;2023-02-12T21:33:30;100757.39;;;3.95;68.90
62864;BME280;48954;59.950;11.014;2023-02-12T21:36:16;100760.44;;;3.87;68.81
62864;BME280;48954;59.950;11.014;2023-02-12T21:39:00;100763.98;;;3.80;69.05
62864;BME280;48954;59.950;11.014;2023-02-12T21:42:02;100765.59;;;3.74;69.01
62864;BME280;48954;59.950;11.014;2023-02-12T21:44:40;100768.51;;;3.71;69.15
62864;BME280;48954;59.950;11.014;2023-02-12T21:53:23;100762.82;;;3.67;69.44
62864;BME280;48954;59.950;11.014;2023-02-12T21:56:07;100766.68;;;3.67;69.37
62864;BME280;48954;59.950;11.014;2023-02-12T21:58:48;100766.07;;;3.69;69.61
62864;BME280;48954;59.950;11.014;2023-02-12T22:01:35;100758.23;;;3.71;69.34
62864;BME280;48954;59.950;11.014;2023-02-12T22:04:15;100753.14;;;3.72;69.31
62864;BME280;48954;59.950;11.014;2023-02-12T22:07:23;100757.08;;;3.72;69.37
62864;BME280;48954;59.950;11.014;2023-02-12T22:10:04;100764.37;;;3.72;69.28
62864;BME280;48954;59.950;11.014;2023-02-12T22:12:55;100761.38;;;3.71;69.38
62864;BME280;48954;59.950;11.014;2023-02-12T22:15:36;100761.44;;;3.70;69.37
62864;BME280;48954;59.950;11.014;2023-02-12T22:18:38;100760.92;;;3.66;69.37
62864;BME280;48954;59.950;11.014;2023-02-12T22:21:27;100769.85;;;3.63;69.42
62864;BME280;48954;59.950;11.014;2023-02-12T22:24:13;100770.09;;;3.60;69.51
62864;BME280;48954;59.950;11.014;2023-02-12T22:27:39;100771.87;;;3.55;69.31
62864;BME280;48954;59.950;11.014;2023-02-12T22:30:32;100773.30;;;3.53;69.52
62864;BME280;48954;59.950;11.014;2023-02-12T22:33:28;100763.64;;;3.51;69.70
62864;BME280;48954;59.950;11.014;2023-02-12T22:36:09;100767.27;;;3.52;69.73
62864;BME280;48954;59.950;11.014;2023-02-12T22:38:56;100766.29;;;3.52;69.68
62864;BME280;48954;59.950;11.014;2023-02-12T22:41:57;100767.20;;;3.50;69.56
62864;BME280;48954;59.950;11.014;2023-02-12T22:44:58;100763.94;;;3.46;69.71
62864;BME280;48954;59.950;11.014;2023-02-12T22:47:43;100766.83;;;3.44;69.85
62864;BME280;48954;59.950;11.014;2023-02-12T22:50:46;100763.32;;;3.47;70.06
62864;BME280;48954;59.950;11.014;2023-02-12T22:54:00;100760.56;;;3.55;69.86
62864;BME280;48954;59.950;11.014;2023-02-12T22:57:21;100765.55;;;3.62;69.81
62864;BME280;48954;59.950;11.014;2023-02-12T23:00:27;100758.20;;;3.66;69.84
62864;BME280;48954;59.950;11.014;2023-02-12T23:03:35;100756.59;;;3.65;69.56
62864;BME280;48954;59.950;11.014;2023-02-12T23:06:35;100745.92;;;3.62;69.67
62864;BME280;48954;59.950;11.014;2023-02-12T23:09:17;100740.65;;;3.61;69.65
62864;BME280;48954;59.950;11.014;2023-02-12T23:11:59;100742.54;;;3.62;69.79
62864;BME280;48954;59.950;11.014;2023-02-12T23:14:47;100749.51;;;3.66;69.69
62864;BME280;48954;59.950;11.014;2023-02-12T23:17:31;100746.23;;;3.68;69.65
62864;BME280;48954;59.950;11.014;2023-02-12T23:20:38;100748.50;;;3.69;69.65
62864;BME280;48954;59.950;11.014;2023-02-12T23:23:35;100751.04;;;3.71;69.53
62864;BME280;48954;59.950;11.014;2023-02-12T23:26:48;100738.94;;;3.73;69.46
62864;BME280;48954;59.950;11.014;2023-02-12T23:29:32;100736.94;;;3.72;69.46
62864;BME280;48954;59.950;11.014;2023-02-12T23:32:15;100737.67;;;3.69;69.42
62864;BME280;48954;59.950;11.014;2023-02-12T23:35:01;100735.61;;;3.68;69.56
62864;BME280;48954;59.950;11.014;2023-02-12T23:38:21;100741.05;;;3.69;69.62
62864;BME280;48954;59.950;11.014;2023-02-12T23:41:32;100739.05;;;3.72;69.38
62864;BME280;48954;59.950;11.014;2023-02-12T23:44:50;100735.30;;;3.76;69.55
62864;BME280;48954;59.950;11.014;2023-02-12T23:47:51;100730.23;;;3.80;69.38
62864;BME280;48954;59.950;11.014;2023-02-12T23:51:07;100731.53;;;3.82;69.38
62864;BME280;48954;59.950;11.014;2023-02-12T23:54:09;100726.61;;;3.83;69.07
62864;BME280;48954;59.950;11.014;2023-02-12T23:56:53;100719.20;;;3.83;69.07
62864;BME280;48954;59.950;11.014;2023-02-12T23:59:35;100716.56;;;3.87;69.34
